sensor_id;sensor_type;location;lat;lon;timestamp;pressure;altitude;pressure_sealevel;temperature;humidity
27729;BME280;15126;42.186;24.340;2023-05-23T00:02:09;99052.34;;;16.14;85.95
27729;BME280;15126;42.186;24.340;2023-05-23T00:04:37;99033.25;;;16.09;86.00
27729;BME280;15126;42.186;24.340;2023-05-23T00:07:04;99042.78;;;16.12;86.16
27729;BME280;15126;42.186;24.340;2023-05-23T00:09:31;99046.72;;;16.14;86.17
27729;BME280;15126;42.186;24.340;2023-05-23T00:11:58;99045.94;;;16.14;86.28
27729;BME280;15126;42.186;24.340;2023-05-23T00:14:25;99033.91;;;16.04;86.52
27729;BME280;15126;42.186;24.340;2023-05-23T00:16:52;99044.94;;;15.84;87.54
27729;BME280;15126;42.186;24.340;2023-05-23T00:19:20;99036.97;;;15.82;87.78
27729;BME280;15126;42.186;24.340;2023-05-23T00:21:47;99035.56;;;15.87;87.54
27729;BME280;15126;42.186;24.340;2023-05-23T00:24:15;99012.44;;;15.74;87.43
27729;BME280;15126;42.186;24.340;2023-05-23T00:26:42;99041.94;;;15.87;87.69
27729;BME280;15126;42.186;24.340;2023-05-23T00:29:09;99020.59;;;15.72;87.37
27729;BME280;15126;42.186;24.340;2023-05-23T00:31:40;99034.78;;;15.86;87.63
27729;BME280;15126;42.186;24.340;2023-05-23T00:34:07;99036.16;;;15.82;87.56
27729;BME280;15126;42.186;24.340;2023-05-23T00:36:35;99041.34;;;15.83;87.14
27729;BME280;15126;42.186;24.340;2023-05-23T00:39:02;99031.38;;;15.73;87.42
27729;BME280;15126;42.186;24.340;2023-05-23T00:41:29;99039.53;;;15.62;87.70
27729;BME280;15126;42.186;24.340;2023-05-23T00:43:56;99045.28;;;15.68;87.17
27729;BME280;15126;42.186;24.340;2023-05-23T00:46:24;99033.41;;;15.64;87.04
27729;BME280;15126;42.186;24.340;2023-05-23T00:48:51;99039.34;;;15.66;86.54
27729;BME280;15126;42.186;24.340;2023-05-23T00:51:19;99030.31;;;15.62;86.10
27729;BME280;15126;42.186;24.340;2023-05-23T00:53:50;99029.03;;;15.44;87.20
27729;BME280;15126;42.186;24.340;2023-05-23T00:56:17;99032.81;;;15.51;86.71
27729;BME280;15126;42.186;24.340;2023-05-23T00:58:44;99035.00;;;15.56;86.33
27729;BME280;15126;42.186;24.340;2023-05-23T01:01:12;99032.66;;;15.54;86.39
27729;BME280;15126;42.186;24.340;2023-05-23T01:03:39;99037.34;;;15.57;86.42
27729;BME280;15126;42.186;24.340;2023-05-23T01:06:06;99033.41;;;15.55;86.59
27729;BME280;15126;42.186;24.340;2023-05-23T01:08:33;99034.06;;;15.40;86.55
27729;BME280;15126;42.186;24.340;2023-05-23T01:11:04;99035.94;;;15.34;86.62
27729;BME280;15126;42.186;24.340;2023-05-23T01:13:39;99024.84;;;15.31;86.20
27729;BME280;15126;42.186;24.340;2023-05-23T01:16:12;99020.03;;;15.04;87.41
27729;BME280;15126;42.186;24.340;2023-05-23T01:18:45;99019.41;;;15.09;87.03
27729;BME280;15126;42.186;24.340;2023-05-23T01:21:16;99017.22;;;14.86;87.88
27729;BME280;15126;42.186;24.340;2023-05-23T01:24:02;99018.72;;;14.60;89.43
27729;BME280;15126;42.186;24.340;2023-05-23T01:26:44;98978.44;;;14.26;90.14
27729;BME280;15126;42.186;24.340;2023-05-23T01:29:20;99016.38;;;14.49;90.50
27729;BME280;15126;42.186;24.340;2023-05-23T01:31:51;99016.69;;;14.42;90.33
27729;BME280;15126;42.186;24.340;2023-05-23T01:34:19;99014.66;;;14.43;90.76
27729;BME280;15126;42.186;24.340;2023-05-23T01:36:49;99007.03;;;14.52;90.90
27729;BME280;15126;42.186;24.340;2023-05-23T01:39:19;99013.59;;;14.58;90.13
27729;BME280;15126;42.186;24.340;2023-05-23T01:41:46;99008.94;;;14.64;90.26
27729;BME280;15126;42.186;24.340;2023-05-23T01:44:14;99018.13;;;14.74;89.45
27729;BME280;15126;42.186;24.340;2023-05-23T01:46:41;99008.47;;;14.75;88.21
27729;BME280;15126;42.186;24.340;2023-05-23T01:49:11;99010.31;;;14.60;87.75
27729;BME280;15126;42.186;24.340;2023-05-23T01:51:39;99009.34;;;14.45;88.00
27729;BME280;15126;42.186;24.340;2023-05-23T01:54:06;99005.94;;;14.50;88.33
27729;BME280;15126;42.186;24.340;2023-05-23T01:56:33;98990.34;;;14.40;88.38
27729;BME280;15126;42.186;24.340;2023-05-23T01:59:01;99005.47;;;14.60;88.12
27729;BME280;15126;42.186;24.340;2023-05-23T02:01:30;99005.66;;;14.66;87.44
27729;BME280;15126;42.186;24.340;2023-05-23T02:03:56;99006.28;;;14.70;87.53
27729;BME280;15126;42.186;24.340;2023-05-23T02:06:23;99000.19;;;14.71;86.79
27729;BME280;15126;42.186;24.340;2023-05-23T02:08:50;99003.94;;;14.77;87.20
27729;BME280;15126;42.186;24.340;2023-05-23T02:11:17;98971.34;;;14.62;87.17
27729;BME280;15126;42.186;24.340;2023-05-23T02:13:44;98999.09;;;14.69;87.37
27729;BME280;15126;42.186;24.340;2023-05-23T02:16:11;98996.28;;;14.60;88.30
27729;BME280;15126;42.186;24.340;2023-05-23T02:18:39;98995.66;;;14.56;88.60
27729;BME280;15126;42.186;24.340;2023-05-23T02:21:06;98988.63;;;14.51;89.03
27729;BME280;15126;42.186;24.340;2023-05-23T02:23:33;98996.91;;;14.46;89.37
27729;BME280;15126;42.186;24.340;2023-05-23T02:25:59;98992.22;;;14.52;88.99
27729;BME280;15126;42.186;24.340;2023-05-23T02:28:26;98999.69;;;14.55;88.48
27729;BME280;15126;42.186;24.340;2023-05-23T02:30:53;99006.25;;;14.61;88.19
27729;BME280;15126;42.186;24.340;2023-05-23T02:33:20;99010.00;;;14.58;88.10
27729;BME280;15126;42.186;24.340;2023-05-23T02:35:48;99018.72;;;14.60;87.49
27729;BME280;15126;42.186;24.340;2023-05-23T02:38:15;99009.84;;;14.61;87.36
27729;BME280;15126;42.186;24.340;2023-05-23T02:40:44;98983.47;;;14.41;87.11
27729;BME280;15126;42.186;24.340;2023-05-23T02:43:10;99006.31;;;14.30;88.10
27729;BME280;15126;42.186;24.340;2023-05-23T02:45:37;99004.44;;;14.27;88.60
27729;BME280;15126;42.186;24.340;2023-05-23T02:48:04;99003.94;;;14.10;89.01
27729;BME280;15126;42.186;24.340;2023-05-23T02:50:31;98994.91;;;14.15;88.88
27729;BME280;15126;42.186;24.340;2023-05-23T02:52:59;98987.91;;;14.20;88.82
27729;BME280;15126;42.186;24.340;2023-05-23T02:55:26;99013.06;;;14.32;88.12
27729;BME280;15126;42.186;24.340;2023-05-23T02:57:53;99015.22;;;14.28;88.29
27729;BME280;15126;42.186;24.340;2023-05-23T03:00:21;99017.44;;;14.34;88.26
27729;BME280;15126;42.186;24.340;2023-05-23T03:02:48;99014.50;;;14.37;88.31
27729;BME280;15126;42.186;24.340;2023-05-23T03:05:14;99008.09;;;14.37;88.00
27729;BME280;15126;42.186;24.340;2023-05-23T03:07:41;98994.31;;;14.29;87.90
27729;BME280;15126;42.186;24.340;2023-05-23T03:10:10;99006.53;;;14.36;87.72
27729;BME280;15126;42.186;24.340;2023-05-23T03:12:36;99007.16;;;14.40;87.67
27729;BME280;15126;42.186;24.340;2023-05-23T03:15:04;99008.41;;;14.39;88.47
27729;BME280;15126;42.186;24.340;2023-05-23T03:17:31;98991.94;;;14.10;88.00
27729;BME280;15126;42.186;24.340;2023-05-23T03:19:58;99003.78;;;14.14;88.13
27729;BME280;15126;42.186;24.340;2023-05-23T03:22:25;99007.66;;;14.07;88.84
27729;BME280;15126;42.186;24.340;2023-05-23T03:24:52;99000.19;;;14.13;88.86
27729;BME280;15126;42.186;24.340;2023-05-23T03:27:21;99005.59;;;13.99;88.56
27729;BME280;15126;42.186;24.340;2023-05-23T03:29:48;98999.56;;;14.09;88.92
27729;BME280;15126;42.186;24.340;2023-05-23T03:32:14;98997.81;;;14.03;88.93
27729;BME280;15126;42.186;24.340;2023-05-23T03:34:41;99006.28;;;13.81;89.43
27729;BME280;15126;42.186;24.340;2023-05-23T03:37:08;99008.19;;;13.84;89.54
27729;BME280;15126;42.186;24.340;2023-05-23T03:39:35;99006.66;;;13.92;89.87
27729;BME280;15126;42.186;24.340;2023-05-23T03:42:05;99000.06;;;13.77;89.48
27729;BME280;15126;42.186;24.340;2023-05-23T03:44:33;99005.91;;;13.70;90.04
27729;BME280;15126;42.186;24.340;2023-05-23T03:47:00;99012.59;;;13.63;90.42
27729;BME280;15126;42.186;24.340;2023-05-23T03:49:27;99010.94;;;13.75;90.27
27729;BME280;15126;42.186;24.340;2023-05-23T03:51:53;99014.38;;;13.79;90.55
27729;BME280;15126;42.186;24.340;2023-05-23T03:54:20;99007.69;;;13.77;90.48
27729;BME280;15126;42.186;24.340;2023-05-23T03:56:47;99010.06;;;13.87;90.27
27729;BME280;15126;42.186;24.340;2023-05-23T03:59:14;98994.75;;;13.79;90.35
27729;BME280;15126;42.186;24.340;2023-05-23T04:01:42;99006.22;;;14.03;89.44
27729;BME280;15126;42.186;24.340;2023-05-23T04:04:09;99001.75;;;14.14;89.78
27729;BME280;15126;42.186;24.340;2023-05-23T04:06:36;99004.88;;;14.16;89.58
27729;BME280;15126;42.186;24.340;2023-05-23T04:09:03;99005.38;;;14.24;88.34
27729;BME280;15126;42.186;24.340;2023-05-23T04:11:30;98979.06;;;14.30;87.16
27729;BME280;15126;42.186;24.340;2023-05-23T04:13:57;99016.75;;;14.97;87.03
27729;BME280;15126;42.186;24.340;2023-05-23T04:16:24;99017.19;;;15.59;82.02
27729;BME280;15126;42.186;24.340;2023-05-23T04:18:52;99003.75;;;16.04;81.33
27729;BME280;15126;42.186;24.340;2023-05-23T04:21:19;98999.41;;;16.84;78.17
27729;BME280;15126;42.186;24.340;2023-05-23T04:23:46;99016.53;;;17.48;75.63
27729;BME280;15126;42.186;24.340;2023-05-23T04:26:13;98997.03;;;17.88;73.96
27729;BME280;15126;42.186;24.340;2023-05-23T04:28:39;99010.84;;;18.50;71.84
27729;BME280;15126;42.186;24.340;2023-05-23T04:31:08;99018.34;;;18.93;69.16
27729;BME280;15126;42.186;24.340;2023-05-23T04:33:35;99014.25;;;18.74;67.24
27729;BME280;15126;42.186;24.340;2023-05-23T04:36:03;99009.44;;;19.00;67.59
27729;BME280;15126;42.186;24.340;2023-05-23T04:38:33;99012.19;;;18.95;67.52
27729;BME280;15126;42.186;24.340;2023-05-23T04:41:03;99011.56;;;18.85;68.64
27729;BME280;15126;42.186;24.340;2023-05-23T04:43:30;99009.88;;;18.38;68.62
27729;BME280;15126;42.186;24.340;2023-05-23T04:45:58;99017.84;;;18.40;69.87
27729;BME280;15126;42.186;24.340;2023-05-23T04:48:26;98987.94;;;18.13;70.54
27729;BME280;15126;42.186;24.340;2023-05-23T04:50:53;99013.78;;;18.26;70.54
27729;BME280;15126;42.186;24.340;2023-05-23T04:53:22;99021.88;;;18.33;70.80
27729;BME280;15126;42.186;24.340;2023-05-23T04:55:48;99019.59;;;18.37;70.87
27729;BME280;15126;42.186;24.340;2023-05-23T04:58:15;99017.91;;;18.45;71.78
27729;BME280;15126;42.186;24.340;2023-05-23T05:00:42;99026.31;;;18.55;71.62
27729;BME280;15126;42.186;24.340;2023-05-23T05:03:09;99009.56;;;18.51;71.61
27729;BME280;15126;42.186;24.340;2023-05-23T05:05:36;99020.19;;;18.56;72.54
27729;BME280;15126;42.186;24.340;2023-05-23T05:08:03;98995.31;;;18.60;71.65
27729;BME280;15126;42.186;24.340;2023-05-23T05:10:31;99015.72;;;18.90;73.65
27729;BME280;15126;42.186;24.340;2023-05-23T05:12:58;99020.59;;;19.10;70.38
27729;BME280;15126;42.186;24.340;2023-05-23T05:15:25;99018.13;;;19.17;70.44
27729;BME280;15126;42.186;24.340;2023-05-23T05:17:52;99013.47;;;19.14;70.05
27729;BME280;15126;42.186;24.340;2023-05-23T05:20:19;99020.44;;;19.19;70.36
27729;BME280;15126;42.186;24.340;2023-05-23T05:22:46;99013.91;;;19.07;70.55
27729;BME280;15126;42.186;24.340;2023-05-23T05:25:13;99020.84;;;18.86;70.00
27729;BME280;15126;42.186;24.340;2023-05-23T05:27:41;99017.66;;;18.98;71.18
27729;BME280;15126;42.186;24.340;2023-05-23T05:30:08;98983.59;;;18.87;70.94
27729;BME280;15126;42.186;24.340;2023-05-23T05:32:35;99020.44;;;19.19;72.02
27729;BME280;15126;42.186;24.340;2023-05-23T05:35:03;99020.03;;;19.26;69.66
27729;BME280;15126;42.186;24.340;2023-05-23T05:37:29;99026.16;;;19.44;71.27
27729;BME280;15126;42.186;24.340;2023-05-23T05:39:56;99019.00;;;19.49;68.25
27729;BME280;15126;42.186;24.340;2023-05-23T05:42:23;99028.19;;;19.64;68.03
27729;BME280;15126;42.186;24.340;2023-05-23T05:44:51;99030.06;;;19.73;68.26
27729;BME280;15126;42.186;24.340;2023-05-23T05:47:18;99034.69;;;20.01;67.17
27729;BME280;15126;42.186;24.340;2023-05-23T05:49:45;99027.97;;;20.25;67.28
27729;BME280;15126;42.186;24.340;2023-05-23T05:52:11;99032.72;;;20.44;67.36
27729;BME280;15126;42.186;24.340;2023-05-23T05:54:38;99025.31;;;20.52;66.94
27729;BME280;15126;42.186;24.340;2023-05-23T05:57:05;99035.03;;;20.40;65.49
27729;BME280;15126;42.186;24.340;2023-05-23T05:59:32;99031.09;;;20.32;66.05
27729;BME280;15126;42.186;24.340;2023-05-23T06:02:00;99018.44;;;20.28;65.24
27729;BME280;15126;42.186;24.340;2023-05-23T06:04:27;99030.97;;;20.52;66.49
27729;BME280;15126;42.186;24.340;2023-05-23T06:06:53;99024.72;;;20.85;66.04
27729;BME280;15126;42.186;24.340;2023-05-23T06:09:20;99032.09;;;21.08;64.36
27729;BME280;15126;42.186;24.340;2023-05-23T06:11:47;99021.53;;;21.20;63.94
27729;BME280;15126;42.186;24.340;2023-05-23T06:14:14;99016.19;;;21.33;64.34
27729;BME280;15126;42.186;24.340;2023-05-23T06:16:40;99009.00;;;21.49;65.08
27729;BME280;15126;42.186;24.340;2023-05-23T06:19:09;99013.38;;;21.50;64.03
27729;BME280;15126;42.186;24.340;2023-05-23T06:21:35;99008.00;;;21.63;61.03
27729;BME280;15126;42.186;24.340;2023-05-23T06:24:02;99009.06;;;21.82;62.62
27729;BME280;15126;42.186;24.340;2023-05-23T06:26:29;99010.63;;;22.05;63.09
27729;BME280;15126;42.186;24.340;2023-05-23T06:28:56;99013.47;;;22.27;63.13
27729;BME280;15126;42.186;24.340;2023-05-23T06:31:22;99008.25;;;22.48;61.38
27729;BME280;15126;42.186;24.340;2023-05-23T06:33:49;99006.97;;;22.66;58.13
27729;BME280;15126;42.186;24.340;2023-05-23T06:36:17;99001.47;;;22.79;59.23
27729;BME280;15126;42.186;24.340;2023-05-23T06:38:44;98993.16;;;22.92;59.65
27729;BME280;15126;42.186;24.340;2023-05-23T06:41:12;99001.31;;;23.23;60.89
27729;BME280;15126;42.186;24.340;2023-05-23T06:43:39;98999.28;;;23.18;57.66
27729;BME280;15126;42.186;24.340;2023-05-23T06:46:06;98997.63;;;23.39;59.23
27729;BME280;15126;42.186;24.340;2023-05-23T06:48:33;99007.41;;;23.49;57.74
27729;BME280;15126;42.186;24.340;2023-05-23T06:50:59;98993.47;;;23.76;58.08
27729;BME280;15126;42.186;24.340;2023-05-23T06:53:27;98992.69;;;23.81;58.31
27729;BME280;15126;42.186;24.340;2023-05-23T06:55:54;98991.84;;;23.91;55.85
27729;BME280;15126;42.186;24.340;2023-05-23T06:58:21;99008.63;;;23.59;54.27
27729;BME280;15126;42.186;24.340;2023-05-23T07:00:51;98992.97;;;23.31;56.74
27729;BME280;15126;42.186;24.340;2023-05-23T07:03:17;99002.59;;;23.22;56.91
27729;BME280;15126;42.186;24.340;2023-05-23T07:05:44;99000.38;;;23.56;58.49
27729;BME280;15126;42.186;24.340;2023-05-23T07:08:11;99008.19;;;23.44;57.17
27729;BME280;15126;42.186;24.340;2023-05-23T07:10:39;99001.97;;;23.46;56.13
27729;BME280;15126;42.186;24.340;2023-05-23T07:13:06;98995.69;;;23.58;56.34
27729;BME280;15126;42.186;24.340;2023-05-23T07:15:33;98991.34;;;23.87;58.92
27729;BME280;15126;42.186;24.340;2023-05-23T07:18:00;98988.44;;;23.93;55.07
27729;BME280;15126;42.186;24.340;2023-05-23T07:20:28;98985.28;;;24.02;54.97
27729;BME280;15126;42.186;24.340;2023-05-23T07:22:55;98988.59;;;24.36;59.20
27729;BME280;15126;42.186;24.340;2023-05-23T07:25:21;98990.09;;;24.42;54.45
27729;BME280;15126;42.186;24.340;2023-05-23T07:27:50;98980.66;;;24.28;57.06
27729;BME280;15126;42.186;24.340;2023-05-23T07:30:18;98972.22;;;24.42;57.65
27729;BME280;15126;42.186;24.340;2023-05-23T07:32:46;98960.47;;;24.51;56.12
27729;BME280;15126;42.186;24.340;2023-05-23T07:35:13;98960.97;;;24.73;54.46
27729;BME280;15126;42.186;24.340;2023-05-23T07:37:40;98967.44;;;24.98;53.26
27729;BME280;15126;42.186;24.340;2023-05-23T07:40:07;98971.97;;;24.88;49.57
27729;BME280;15126;42.186;24.340;2023-05-23T07:42:34;98951.84;;;24.80;56.03
27729;BME280;15126;42.186;24.340;2023-05-23T07:45:03;98964.00;;;25.24;54.64
27729;BME280;15126;42.186;24.340;2023-05-23T07:47:30;98966.69;;;25.35;48.85
27729;BME280;15126;42.186;24.340;2023-05-23T07:49:57;98960.97;;;25.35;49.95
27729;BME280;15126;42.186;24.340;2023-05-23T07:52:27;98959.78;;;25.49;48.11
27729;BME280;15126;42.186;24.340;2023-05-23T07:54:54;98962.25;;;25.71;47.75
27729;BME280;15126;42.186;24.340;2023-05-23T07:57:21;98970.16;;;25.97;49.21
27729;BME280;15126;42.186;24.340;2023-05-23T07:59:49;98958.97;;;26.12;45.55
27729;BME280;15126;42.186;24.340;2023-05-23T08:02:17;98962.59;;;25.99;44.29
27729;BME280;15126;42.186;24.340;2023-05-23T08:04:45;98964.75;;;25.93;44.23
27729;BME280;15126;42.186;24.340;2023-05-23T08:07:12;98975.41;;;25.93;48.46
27729;BME280;15126;42.186;24.340;2023-05-23T08:09:39;98964.13;;;26.00;43.68
27729;BME280;15126;42.186;24.340;2023-05-23T08:12:06;98964.00;;;26.25;47.80
27729;BME280;15126;42.186;24.340;2023-05-23T08:14:34;98953.75;;;26.16;45.80
27729;BME280;15126;42.186;24.340;2023-05-23T08:17:00;98963.41;;;26.13;43.36
27729;BME280;15126;42.186;24.340;2023-05-23T08:19:29;98967.41;;;26.36;42.22
27729;BME280;15126;42.186;24.340;2023-05-23T08:21:55;98948.94;;;26.50;42.85
27729;BME280;15126;42.186;24.340;2023-05-23T08:24:22;98954.53;;;26.30;45.69
27729;BME280;15126;42.186;24.340;2023-05-23T08:26:49;98953.47;;;26.46;42.29
27729;BME280;15126;42.186;24.340;2023-05-23T08:29:16;98958.66;;;26.60;41.99
27729;BME280;15126;42.186;24.340;2023-05-23T08:31:42;98955.69;;;26.92;46.92
27729;BME280;15126;42.186;24.340;2023-05-23T08:34:10;98947.59;;;27.17;42.07
27729;BME280;15126;42.186;24.340;2023-05-23T08:36:38;98938.88;;;27.23;44.10
27729;BME280;15126;42.186;24.340;2023-05-23T08:39:06;98940.38;;;27.50;44.55
27729;BME280;15126;42.186;24.340;2023-05-23T08:41:33;98942.63;;;27.64;44.48
27729;BME280;15126;42.186;24.340;2023-05-23T08:44:00;98936.41;;;27.73;48.72
27729;BME280;15126;42.186;24.340;2023-05-23T08:46:28;98944.16;;;27.86;43.83
27729;BME280;15126;42.186;24.340;2023-05-23T08:48:57;98917.34;;;27.42;41.58
27729;BME280;15126;42.186;24.340;2023-05-23T08:51:26;98940.38;;;27.50;44.81
27729;BME280;15126;42.186;24.340;2023-05-23T08:53:55;98931.94;;;27.65;47.57
27729;BME280;15126;42.186;24.340;2023-05-23T08:56:23;98925.38;;;27.77;47.81
27729;BME280;15126;42.186;24.340;2023-05-23T08:58:50;98923.47;;;28.01;43.98
27729;BME280;15126;42.186;24.340;2023-05-23T09:01:19;98905.19;;;28.04;41.33
27729;BME280;15126;42.186;24.340;2023-05-23T09:03:46;98936.97;;;27.72;39.71
27729;BME280;15126;42.186;24.340;2023-05-23T09:06:14;98927.53;;;27.64;44.61
27729;BME280;15126;42.186;24.340;2023-05-23T09:08:42;98936.47;;;27.81;44.30
27729;BME280;15126;42.186;24.340;2023-05-23T09:11:12;98928.38;;;27.93;46.80
27729;BME280;15126;42.186;24.340;2023-05-23T09:13:39;98935.84;;;27.96;42.54
27729;BME280;15126;42.186;24.340;2023-05-23T09:16:08;98933.06;;;27.83;42.00
27729;BME280;15126;42.186;24.340;2023-05-23T09:18:37;98937.31;;;28.30;41.52
27729;BME280;15126;42.186;24.340;2023-05-23T09:21:04;98922.88;;;28.44;44.77
27729;BME280;15126;42.186;24.340;2023-05-23T09:23:31;98931.78;;;28.61;40.50
27729;BME280;15126;42.186;24.340;2023-05-23T09:26:01;98931.59;;;28.59;42.13
27729;BME280;15126;42.186;24.340;2023-05-23T09:28:30;98933.69;;;28.58;38.57
27729;BME280;15126;42.186;24.340;2023-05-23T09:30:58;98926.75;;;28.54;38.38
27729;BME280;15126;42.186;24.340;2023-05-23T09:33:29;98927.38;;;28.31;40.70
27729;BME280;15126;42.186;24.340;2023-05-23T09:35:58;98931.31;;;28.21;41.12
27729;BME280;15126;42.186;24.340;2023-05-23T09:38:27;98933.28;;;28.05;41.48
27729;BME280;15126;42.186;24.340;2023-05-23T09:40:54;98931.19;;;27.85;42.05
27729;BME280;15126;42.186;24.340;2023-05-23T09:43:22;98913.41;;;27.66;40.75
27729;BME280;15126;42.186;24.340;2023-05-23T09:45:52;98931.22;;;27.51;42.93
27729;BME280;15126;42.186;24.340;2023-05-23T09:48:19;98925.41;;;27.44;44.51
27729;BME280;15126;42.186;24.340;2023-05-23T09:50:46;98911.47;;;27.14;43.35
27729;BME280;15126;42.186;24.340;2023-05-23T09:53:15;98921.72;;;27.23;44.92
27729;BME280;15126;42.186;24.340;2023-05-23T09:55:46;98921.94;;;27.11;44.85
27729;BME280;15126;42.186;24.340;2023-05-23T09:58:15;98932.53;;;26.77;45.56
27729;BME280;15126;42.186;24.340;2023-05-23T10:00:44;98930.13;;;26.29;44.91
27729;BME280;15126;42.186;24.340;2023-05-23T10:03:15;98934.06;;;26.26;48.76
27729;BME280;15126;42.186;24.340;2023-05-23T10:05:45;98940.75;;;26.15;48.53
27729;BME280;15126;42.186;24.340;2023-05-23T10:08:15;98932.19;;;25.83;43.88
27729;BME280;15126;42.186;24.340;2023-05-23T10:13:59;98937.06;;;25.38;54.76
27729;BME280;15126;42.186;24.340;2023-05-23T10:16:32;98944.84;;;25.00;61.84
27729;BME280;15126;42.186;24.340;2023-05-23T10:19:07;98927.88;;;23.87;65.12
27729;BME280;15126;42.186;24.340;2023-05-23T10:21:41;98940.88;;;23.00;68.47
27729;BME280;15126;42.186;24.340;2023-05-23T10:24:10;98921.41;;;22.58;66.04
27729;BME280;15126;42.186;24.340;2023-05-23T10:26:38;98927.47;;;22.10;69.02
27729;BME280;15126;42.186;24.340;2023-05-23T10:29:05;98937.31;;;22.04;70.67
27729;BME280;15126;42.186;24.340;2023-05-23T10:31:32;98923.84;;;22.10;70.81
27729;BME280;15126;42.186;24.340;2023-05-23T10:34:07;98921.28;;;22.17;73.09
27729;BME280;15126;42.186;24.340;2023-05-23T10:36:42;98932.34;;;22.26;75.38
27729;BME280;15126;42.186;24.340;2023-05-23T10:39:18;98906.31;;;21.94;74.77
27729;BME280;15126;42.186;24.340;2023-05-23T10:41:53;98929.25;;;22.19;80.09
27729;BME280;15126;42.186;24.340;2023-05-23T10:44:24;98935.16;;;22.32;78.32
27729;BME280;15126;42.186;24.340;2023-05-23T10:46:54;98938.50;;;22.41;73.25
27729;BME280;15126;42.186;24.340;2023-05-23T10:49:36;98931.78;;;22.50;72.40
27729;BME280;15126;42.186;24.340;2023-05-23T10:52:03;98927.38;;;22.49;71.66
27729;BME280;15126;42.186;24.340;2023-05-23T10:54:34;98924.75;;;22.62;72.80
27729;BME280;15126;42.186;24.340;2023-05-23T10:57:04;98919.00;;;22.79;76.95
27729;BME280;15126;42.186;24.340;2023-05-23T10:59:32;98924.84;;;23.03;67.63
27729;BME280;15126;42.186;24.340;2023-05-23T11:01:59;98926.34;;;23.15;64.02
27729;BME280;15126;42.186;24.340;2023-05-23T11:04:27;98924.94;;;23.27;63.73
27729;BME280;15126;42.186;24.340;2023-05-23T11:06:56;98926.63;;;23.52;63.84
27729;BME280;15126;42.186;24.340;2023-05-23T11:09:23;98925.94;;;23.70;59.69
27729;BME280;15126;42.186;24.340;2023-05-23T11:11:54;98924.69;;;23.96;59.41
27729;BME280;15126;42.186;24.340;2023-05-23T11:14:50;98933.63;;;24.11;55.47
27729;BME280;15126;42.186;24.340;2023-05-23T11:17:29;98928.09;;;24.24;52.40
27729;BME280;15126;42.186;24.340;2023-05-23T11:19:58;98901.53;;;24.10;53.04
27729;BME280;15126;42.186;24.340;2023-05-23T11:22:30;98929.28;;;24.34;56.01
27729;BME280;15126;42.186;24.340;2023-05-23T11:24:58;98924.16;;;24.27;54.42
27729;BME280;15126;42.186;24.340;2023-05-23T11:27:26;98927.66;;;24.39;54.55
27729;BME280;15126;42.186;24.340;2023-05-23T11:30:00;98925.44;;;24.02;52.00
27729;BME280;15126;42.186;24.340;2023-05-23T11:32:30;98928.44;;;24.15;53.56
27729;BME280;15126;42.186;24.340;2023-05-23T11:35:00;98927.13;;;24.16;54.43
27729;BME280;15126;42.186;24.340;2023-05-23T11:37:31;98933.66;;;24.35;55.23
27729;BME280;15126;42.186;24.340;2023-05-23T11:39:58;98925.34;;;24.37;51.61
27729;BME280;15126;42.186;24.340;2023-05-23T11:42:26;98930.50;;;24.63;53.11
27729;BME280;15126;42.186;24.340;2023-05-23T11:44:53;98926.63;;;24.84;53.08
27729;BME280;15126;42.186;24.340;2023-05-23T11:47:19;98922.69;;;24.88;49.84
27729;BME280;15126;42.186;24.340;2023-05-23T11:49:46;98925.94;;;25.16;50.35
27729;BME280;15126;42.186;24.340;2023-05-23T11:52:14;98926.72;;;25.16;47.94
27729;BME280;15126;42.186;24.340;2023-05-23T11:54:42;98926.00;;;25.29;47.25
27729;BME280;15126;42.186;24.340;2023-05-23T11:57:09;98918.06;;;25.40;48.18
27729;BME280;15126;42.186;24.340;2023-05-23T11:59:37;98921.47;;;25.20;47.45
27729;BME280;15126;42.186;24.340;2023-05-23T12:02:05;98914.97;;;25.20;50.48
27729;BME280;15126;42.186;24.340;2023-05-23T12:04:33;98911.56;;;25.40;54.00
27729;BME280;15126;42.186;24.340;2023-05-23T12:07:03;98902.34;;;25.15;47.67
27729;BME280;15126;42.186;24.340;2023-05-23T12:09:30;98906.47;;;25.33;48.38
27729;BME280;15126;42.186;24.340;2023-05-23T12:11:58;98900.00;;;25.32;47.12
27729;BME280;15126;42.186;24.340;2023-05-23T12:14:27;98894.63;;;25.29;47.46
27729;BME280;15126;42.186;24.340;2023-05-23T12:16:54;98894.56;;;25.66;51.91
27729;BME280;15126;42.186;24.340;2023-05-23T12:19:22;98898.09;;;25.72;45.58
27729;BME280;15126;42.186;24.340;2023-05-23T12:21:49;98893.66;;;26.03;47.10
27729;BME280;15126;42.186;24.340;2023-05-23T12:24:16;98890.31;;;26.31;51.09
27729;BME280;15126;42.186;24.340;2023-05-23T12:26:50;98884.25;;;26.34;46.10
27729;BME280;15126;42.186;24.340;2023-05-23T12:29:20;98882.94;;;26.22;44.79
27729;BME280;15126;42.186;24.340;2023-05-23T12:31:50;98870.91;;;25.97;44.61
27729;BME280;15126;42.186;24.340;2023-05-23T12:34:19;98877.34;;;25.85;44.34
27729;BME280;15126;42.186;24.340;2023-05-23T12:36:46;98873.94;;;25.73;46.20
27729;BME280;15126;42.186;24.340;2023-05-23T12:39:14;98868.66;;;25.45;45.94
27729;BME280;15126;42.186;24.340;2023-05-23T12:41:41;98869.59;;;25.54;48.87
27729;BME280;15126;42.186;24.340;2023-05-23T12:44:10;98871.66;;;25.53;46.34
27729;BME280;15126;42.186;24.340;2023-05-23T12:46:40;98862.91;;;25.64;45.43
27729;BME280;15126;42.186;24.340;2023-05-23T12:49:06;98858.09;;;25.72;46.67
27729;BME280;15126;42.186;24.340;2023-05-23T12:51:33;98855.25;;;25.85;46.06
27729;BME280;15126;42.186;24.340;2023-05-23T12:54:00;98855.28;;;25.98;44.35
27729;BME280;15126;42.186;24.340;2023-05-23T12:56:28;98863.34;;;26.13;43.93
27729;BME280;15126;42.186;24.340;2023-05-23T12:58:55;98853.34;;;26.33;44.66